PDT,Max TemperatureF,Mean TemperatureF,Min TemperatureF,Max Dew PointF,MeanDew PointF,Min DewpointF,Max Humidity, Mean Humidity, Min Humidity, Max Sea Level PressureIn, Mean Sea Level PressureIn, Min Sea Level PressureIn, Max VisibilityMiles, Mean VisibilityMiles, Min VisibilityMiles, Max Wind SpeedMPH, Mean Wind SpeedMPH, Max Gust SpeedMPH,PrecipitationIn, CloudCover, Events, WindDirDegrees
2013-8-1,109,94,80,54,43,32,30,18,9,29.82,29.75,29.65,10,10,10,10,2,18,0.00,0,,29
2013-8-2,108,92,77,56,41,31,39,20,7,29.81,29.74,29.68,10,10,10,9,5,,0.00,0,,150
2013-8-3,107,92,77,55,45,38,31,21,12,29.84,29.78,29.71,10,10,10,10,2,,0.00,0,,264
2013-8-4,109,94,80,68,47,33,67,25,9,29.86,29.79,29.71,10,10,10,13,4,,0.00,0,,110
2013-8-5,105,88,75,71,54,36,59,31,16,29.86,29.80,29.74,10,10,10,15,6,18,0.00,0,,130
2013-8-6,107,92,77,73,59,31,82,42,8,29.89,29.82,29.76,10,10,10,21,7,22,0.00,0,,144
2013-8-7,107,90,75,45,32,16,25,14,4,29.90,29.83,29.75,10,10,10,12,6,,0.00,0,,270
2013-8-8,109,94,79,45,35,23,28,16,5,29.83,29.77,29.70,10,10,10,17,7,23,0.00,0,,278
2013-8-9,105,90,75,43,34,27,28,15,7,29.79,29.74,29.70,10,10,10,17,7,22,0.00,0,,276
2013-8-10,102,88,73,46,34,26,29,17,8,29.87,29.81,29.75,10,10,10,10,6,,0.00,0,,269
2013-8-11,104,87,72,48,39,32,35,19,10,29.86,29.79,29.70,10,10,10,10,5,,0.00,0,,296
2013-8-12,107,90,73,50,41,33,34,19,8,29.82,29.76,29.70,10,10,10,8,4,,0.00,0,,255
2013-8-13,107,92,77,67,54,40,60,31,11,29.87,29.79,29.72,10,10,10,9,6,,0.00,0,,135
2013-8-14,108,91,75,74,59,46,79,39,13,29.84,29.77,29.69,10,10,10,10,4,,0.00,0,,149
2013-8-15,111,98,84,73,60,46,65,33,18,29.83,29.76,29.70,10,10,10,13,4,24,0.00,0,,147
2013-8-16,113,96,82,53,49,43,29,20,13,29.81,29.76,29.68,10,10,10,9,6,,0.00,0,,230
2013-8-17,113,100,87,68,58,50,49,29,14,29.82,29.73,29.62,10,10,10,13,6,16,0.00,0,,130
2013-8-18,109,96,84,63,59,55,44,27,17,29.78,29.72,29.64,10,10,9,17,9,24,0.00,0,,118
2013-8-19,105,94,84,71,62,54,55,36,20,29.84,29.76,29.69,10,10,10,12,6,,0.00,0,,267
2013-8-20,111,94,78,70,55,41,55,33,10,29.78,29.73,29.65,10,8,1,12,5,,0.00,0,,254
2013-8-21,111,95,81,69,61,50,57,33,14,29.80,29.74,29.68,10,10,10,18,6,17,0.00,0,,143
2013-8-22,109,96,84,77,67,57,70,44,22,29.82,29.75,29.66,10,8,0,34,10,44,0.04,1,Rain-Thunderstorm,142
2013-8-23,105,92,80,70,65,63,71,42,26,29.79,29.71,29.61,10,10,10,16,4,20,0.00,0,,184
2013-8-24,100,88,77,76,71,66,82,62,39,29.84,29.76,29.68,10,8,0,21,12,33,0.01,2,Rain-Thunderstorm,120
2013-8-25,89,81,75,74,72,68,82,72,62,29.90,29.88,29.82,10,10,10,15,5,17,0.04,2,Rain-Thunderstorm,71
2013-8-26,90,82,73,75,73,69,97,81,50,29.95,29.89,29.79,10,9,2,10,4,,0.39,5,Rain,336
2013-8-27,100,88,77,74,70,66,84,56,34,29.81,29.74,29.65,10,10,10,8,3,,0.00,0,,285
2013-8-28,105,93,81,73,67,62,69,44,25,29.81,29.72,29.68,10,10,10,22,5,33,0.00,0,,229
2013-8-29,93,86,82,77,75,73,82,71,59,29.96,29.91,29.82,10,10,8,17,9,23,0.09,2,Rain-Thunderstorm,117
2013-8-30,96,88,82,77,74,71,79,62,46,29.98,29.91,29.84,10,9,2,8,4,,0.00,1,Rain,184
2013-8-31,104,92,82,74,69,66,72,49,32,29.89,29.80,29.73,10,8,0,28,7,43,0.00,1,Thunderstorm,247